Time;durP1;ratioP1;P1;durP2;ratioP2;P2;SDS_P1;SDS_P2;PMS_P1;PMS_P2;Temp;Humidity;BMP_temperature;BMP_pressure;BME280_temperature;BME280_humidity;BME280_pressure;Samples;Min_cycle;Max_cycle;Signal;HPM_P1;HPM_P2
2023/11/15 00:01:30;;;;;;;13.00;7.90;;;;;;;6.63;100.00;99786.02;108835;1263;72629;-74
2023/11/15 00:03:58;;;;;;;12.30;8.40;;;;;;;6.62;100.00;99783.13;108913;1263;59670;-76
2023/11/15 00:06:25;;;;;;;9.70;7.60;;;;;;;6.61;100.00;99774.72;108994;1263;58768;-76
2023/11/15 00:08:53;;;;;;;12.50;8.10;;;;;;;6.60;100.00;99774.06;108823;1263;73823;-76
2023/11/15 00:11:21;;;;;;;13.30;8.00;;;;;;;6.59;100.00;99769.42;108839;1262;63687;-76
2023/11/15 00:13:50;;;;;;;14.40;8.10;;;;;;;6.59;100.00;99769.09;108827;1263;72716;-75
2023/11/15 00:16:18;;;;;;;10.00;7.60;;;;;;;6.58;100.00;99772.95;108808;1265;60954;-75
2023/11/15 00:18:46;;;;;;;9.20;7.60;;;;;;;6.57;100.00;99773.02;108854;1263;58791;-75
2023/11/15 00:21:14;;;;;;;12.30;8.10;;;;;;;6.56;100.00;99771.52;108838;1263;72686;-75
2023/11/15 00:23:42;;;;;;;10.70;7.80;;;;;;;6.56;100.00;99773.42;108844;1262;63256;-75
2023/11/15 00:26:09;;;;;;;9.50;6.80;;;;;;;6.56;100.00;99773.09;108813;1262;72709;-76
2023/11/15 00:28:39;;;;;;;15.00;7.70;;;;;;;6.57;100.00;99772.15;108719;1263;59186;-75
2023/11/15 00:31:07;;;;;;;16.20;9.40;;;;;;;6.57;100.00;99772.29;108710;1262;58879;-74
2023/11/15 00:33:34;;;;;;;13.30;8.20;;;;;;;6.58;100.00;99775.56;108838;1263;72596;-76
2023/11/15 00:36:02;;;;;;;10.50;7.20;;;;;;;6.59;100.00;99779.15;108796;1263;63664;-75
2023/11/15 00:38:30;;;;;;;11.10;7.70;;;;;;;6.59;100.00;99780.69;108801;1263;72710;-75
2023/11/15 00:40:58;;;;;;;14.10;8.50;;;;;;;6.60;100.00;99784.82;108876;1262;62058;-76
2023/11/15 00:43:25;;;;;;;12.40;8.50;;;;;;;6.60;100.00;99790.36;108756;1263;58800;-75
2023/11/15 00:45:53;;;;;;;10.30;8.50;;;;;;;6.60;100.00;99789.16;108802;1263;73832;-76
2023/11/15 00:48:21;;;;;;;13.10;8.50;;;;;;;6.60;100.00;99790.54;108784;1263;64310;-75
2023/11/15 00:50:48;;;;;;;12.60;8.00;;;;;;;6.60;100.00;99791.59;108802;1263;72616;-75
2023/11/15 00:53:16;;;;;;;16.90;9.00;;;;;;;6.60;100.00;99794.19;108789;1263;59690;-76
2023/11/15 00:55:44;;;;;;;11.60;7.50;;;;;;;6.61;100.00;99795.39;108856;1263;60151;-75
2023/11/15 00:58:12;;;;;;;10.90;7.70;;;;;;;6.60;100.00;99795.42;108673;1263;73908;-76
2023/11/15 01:00:44;;;;;;;13.20;7.70;;;;;;;6.59;100.00;99793.55;108738;1263;65756;-76
2023/11/15 01:03:15;;;;;;;11.50;7.20;;;;;;;6.57;100.00;99788.27;108828;1263;71401;-76
2023/11/15 01:05:43;;;;;;;11.90;8.20;;;;;;;6.58;100.00;99788.77;108822;1263;61073;-76
2023/11/15 01:08:11;;;;;;;14.70;8.40;;;;;;;6.57;100.00;99788.46;108851;1262;59122;-76
2023/11/15 01:10:41;;;;;;;10.50;8.60;;;;;;;6.55;100.00;99786.16;108812;1263;73378;-75
2023/11/15 01:13:09;;;;;;;13.00;8.70;;;;;;;6.55;100.00;99792.73;108844;1262;62566;-76
2023/11/15 01:15:37;;;;;;;12.50;8.40;;;;;;;6.55;100.00;99781.50;108930;1263;70393;-75
2023/11/15 01:18:07;;;;;;;14.10;8.80;;;;;;;6.53;100.00;99778.27;108941;1263;59685;-75
2023/11/15 01:20:37;;;;;;;13.70;9.60;;;;;;;6.52;100.00;99779.35;108979;1263;58832;-76
2023/11/15 01:23:05;;;;;;;12.60;9.70;;;;;;;6.51;100.00;99782.55;108806;1267;72811;-76
2023/11/15 01:25:33;;;;;;;13.40;10.10;;;;;;;6.49;100.00;99783.36;108557;1267;62927;-76
2023/11/15 01:28:01;;;;;;;16.90;11.20;;;;;;;6.48;100.00;99785.89;108570;1267;74153;-75
2023/11/15 01:30:31;;;;;;;11.00;9.50;;;;;;;6.47;100.00;99791.83;108577;1270;60847;-76
2023/11/15 01:33:02;;;;;;;13.30;8.80;;;;;;;6.47;100.00;99793.58;108628;1267;59471;-75
2023/11/15 01:35:30;;;;;;;14.40;8.60;;;;;;;6.46;100.00;99796.76;108533;1267;72640;-76
2023/11/15 01:37:58;;;;;;;17.30;10.20;;;;;;;6.44;100.00;99796.84;108528;1267;62841;-76
2023/11/15 01:40:33;;;;;;;12.70;8.80;;;;;;;6.43;100.00;99798.12;108578;1266;72852;-76
2023/11/15 01:43:03;;;;;;;16.90;9.80;;;;;;;6.42;100.00;99798.70;108580;1267;60853;-76
2023/11/15 01:45:31;;;;;;;12.60;9.20;;;;;;;6.41;100.00;99792.67;108323;1267;58749;-76
2023/11/15 01:47:59;;;;;;;12.30;8.60;;;;;;;6.40;100.00;99786.64;108550;1269;73911;-77
2023/11/15 01:50:27;;;;;;;15.90;9.80;;;;;;;6.39;100.00;99783.58;108583;1267;63771;-76
2023/11/15 01:52:55;;;;;;;12.90;8.90;;;;;;;6.38;100.00;99781.38;108489;1267;72039;-76
2023/11/15 01:55:23;;;;;;;18.40;9.60;;;;;;;6.37;100.00;99774.48;108551;1267;59608;-75
2023/11/15 01:57:51;;;;;;;19.70;10.50;;;;;;;6.36;100.00;99776.96;108323;1267;58837;-75
2023/11/15 02:00:20;;;;;;;13.30;9.50;;;;;;;6.36;100.00;99776.27;108496;1267;73866;-77
2023/11/15 02:02:47;;;;;;;15.00;10.50;;;;;;;6.34;100.00;99773.24;108499;1269;62950;-76
2023/11/15 02:05:15;;;;;;;19.30;11.40;;;;;;;6.32;100.00;99771.61;108527;1272;71470;-76
2023/11/15 02:07:44;;;;;;;18.90;10.30;;;;;;;6.28;100.00;99767.91;108557;1267;62386;-77
2023/11/15 02:10:15;;;;;;;14.90;11.30;;;;;;;6.21;100.00;99764.60;108509;1267;58883;-75
2023/11/15 02:12:42;;;;;;;20.10;11.10;;;;;;;6.15;100.00;99755.58;108514;1267;72821;-76
2023/11/15 02:15:10;;;;;;;18.10;10.60;;;;;;;6.10;100.00;99750.83;108502;1267;63772;-75
2023/11/15 02:17:38;;;;;;;14.30;10.00;;;;;;;6.06;100.00;99749.86;108463;1267;72416;-76
2023/11/15 02:20:08;;;;;;;15.80;10.20;;;;;;;6.02;100.00;99747.85;108517;1268;59656;-75
2023/11/15 02:22:46;;;;;;;15.00;10.50;;;;;;;5.98;100.00;99744.52;108474;1267;58968;-76
2023/11/15 02:25:14;;;;;;;17.50;10.70;;;;;;;5.96;100.00;99736.34;108553;1267;72984;-76
2023/11/15 02:27:43;;;;;;;17.20;11.70;;;;;;;5.93;100.00;99733.55;108577;1267;63547;-75
2023/11/15 02:30:11;;;;;;;15.20;9.70;;;;;;;5.90;100.00;99730.94;108459;1267;72673;-76
2023/11/15 02:32:42;;;;;;;18.80;11.00;;;;;;;5.86;100.00;99733.56;108477;1269;61061;-75
2023/11/15 02:35:13;;;;;;;22.40;11.40;;;;;;;5.82;100.00;99731.50;108583;1267;59201;-75
2023/11/15 02:37:41;;;;;;;19.30;11.30;;;;;;;5.79;100.00;99730.62;108552;1267;74041;-74
2023/11/15 02:40:10;;;;;;;18.80;10.40;;;;;;;5.77;100.00;99730.39;108551;1267;63581;-75
2023/11/15 02:42:38;;;;;;;16.90;10.20;;;;;;;5.74;100.00;99728.46;108495;1267;72990;-75
2023/11/15 02:45:06;;;;;;;17.30;11.20;;;;;;;5.73;100.00;99736.69;108564;1268;59783;-76
2023/11/15 02:47:34;;;;;;;18.70;10.80;;;;;;;5.70;100.00;99738.58;108565;1267;60350;-75
2023/11/15 02:50:02;;;;;;;21.90;11.40;;;;;;;5.68;100.00;99744.98;108563;1267;73872;-75
2023/11/15 02:52:29;;;;;;;15.90;11.20;;;;;;;5.64;100.00;99747.76;108536;1268;63592;-74
2023/11/15 02:54:58;;;;;;;19.60;11.80;;;;;;;5.61;100.00;99752.05;108576;1267;71389;-75
2023/11/15 02:57:25;;;;;;;20.50;13.00;;;;;;;5.59;100.00;99762.04;108469;1269;60928;-75
2023/11/15 02:59:53;;;;;;;19.50;11.70;;;;;;;5.58;100.00;99765.92;108578;1267;58815;-76
2023/11/15 03:02:21;;;;;;;25.30;12.40;;;;;;;5.58;100.00;99768.36;108475;1267;72586;-76
2023/11/15 03:04:49;;;;;;;17.30;11.20;;;;;;;5.57;100.00;99767.52;108583;1267;63814;-76
2023/11/15 03:07:17;;;;;;;20.00;13.20;;;;;;;5.57;100.00;99766.17;108524;1267;72851;-76
2023/11/15 03:09:44;;;;;;;23.00;15.60;;;;;;;5.56;100.00;99762.71;108451;1267;63039;-76
2023/11/15 03:12:12;;;;;;;16.70;11.60;;;;;;;5.55;100.00;99764.66;108575;1267;58730;-76
2023/11/15 03:14:39;;;;;;;19.10;11.80;;;;;;;5.55;100.00;99767.14;108488;1269;73956;-76
2023/11/15 03:17:17;;;;;;;18.10;12.00;;;;;;;5.55;100.00;99777.37;108570;1267;63960;-76
2023/11/15 03:19:45;;;;;;;20.90;11.20;;;;;;;5.55;100.00;99770.09;108569;1267;72704;-76
2023/11/15 03:22:12;;;;;;;19.80;11.40;;;;;;;5.55;100.00;99783.07;108418;1267;59719;-77
2023/11/15 03:24:42;;;;;;;14.20;10.30;;;;;;;5.56;100.00;99795.01;108595;1267;58855;-76
2023/11/15 03:27:16;;;;;;;16.60;12.20;;;;;;;5.55;100.00;99797.11;108587;1267;73808;-76
2023/11/15 03:29:44;;;;;;;;;;;;;;;5.54;100.00;99777.39;108563;1272;62224;-76
2023/11/15 03:32:14;;;;;;;20.00;12.30;;;;;;;5.54;100.00;99777.73;108569;1267;72692;-76
2023/11/15 03:34:42;;;;;;;16.20;12.10;;;;;;;5.53;100.00;99776.25;108454;1267;59680;-76
2023/11/15 03:37:14;;;;;;;16.40;12.30;;;;;;;5.52;100.00;99790.16;108516;1267;60215;-77
2023/11/15 03:39:47;;;;;;;21.40;12.50;;;;;;;5.51;100.00;99793.33;108472;1267;73938;-76
2023/11/15 03:42:16;;;;;;;21.60;13.50;;;;;;;5.50;100.00;99798.58;108569;1269;63542;-78
2023/11/15 03:44:43;;;;;;;23.10;12.40;;;;;;;5.50;100.00;99804.52;108441;1267;268021;-75
2023/11/15 03:48:49;;;;;;;18.10;11.70;;;;;;;5.51;100.00;99798.88;104275;1292;600310;-77
2023/11/15 03:51:17;;;;;;;20.90;13.00;;;;;;;5.50;100.00;99811.11;105335;1267;61584;-77
2023/11/15 03:53:46;;;;;;;17.10;13.40;;;;;;;5.50;100.00;99814.91;104950;1270;59301;-77
2023/11/15 03:56:14;;;;;;;22.90;13.70;;;;;;;5.48;100.00;99809.98;104898;1271;71992;-77
2023/11/15 03:58:42;;;;;;;22.70;14.00;;;;;;;5.46;100.00;99815.97;104895;1272;63847;-75
2023/11/15 04:01:10;;;;;;;18.90;13.90;;;;;;;5.44;100.00;99815.20;105909;1259;72556;-76
2023/11/15 04:03:38;;;;;;;21.60;14.70;;;;;;;5.43;100.00;99817.89;107418;1251;217826;-76
2023/11/15 04:06:07;;;;;;;29.60;14.80;;;;;;;5.42;100.00;99823.12;108896;1251;59066;-76
2023/11/15 04:08:40;;;;;;;22.30;14.50;;;;;;;5.42;100.00;99820.88;108726;1258;73453;-77
2023/11/15 04:11:09;;;;;;;18.50;13.20;;;;;;;5.42;100.00;99820.33;106396;1256;62261;-76
2023/11/15 04:13:36;;;;;;;17.70;13.00;;;;;;;5.41;100.00;99820.89;105827;1254;73685;-76
2023/11/15 04:16:05;;;;;;;20.90;13.80;;;;;;;5.40;100.00;99819.91;106028;1257;61079;-76
2023/11/15 04:18:33;;;;;;;22.90;13.40;;;;;;;5.39;100.00;99817.35;106038;1256;60027;-76
2023/11/15 04:21:00;;;;;;;25.90;14.10;;;;;;;5.38;100.00;99815.85;106004;1251;73761;-77
2023/11/15 04:23:28;;;;;;;20.20;14.10;;;;;;;5.37;100.00;99813.66;106087;1256;62454;-79
2023/11/15 04:25:58;;;;;;;22.80;13.70;;;;;;;5.36;100.00;99806.09;106161;1256;71338;-77
2023/11/15 04:28:25;;;;;;;21.70;13.40;;;;;;;5.35;100.00;99798.52;105964;1257;62708;-76
2023/11/15 04:30:53;;;;;;;20.50;14.00;;;;;;;5.33;100.00;99792.85;105787;1259;59718;-78
2023/11/15 04:33:20;;;;;;;23.40;14.50;;;;;;;5.34;100.00;99794.59;105902;1252;73156;-77
2023/11/15 04:35:48;;;;;;;20.80;14.90;;;;;;;5.34;100.00;99796.63;105795;1251;62703;-77
2023/11/15 04:38:16;;;;;;;22.20;15.50;;;;;;;5.34;100.00;99794.90;105909;1259;72673;-77
2023/11/15 04:40:43;;;;;;;30.90;19.40;;;;;;;5.34;100.00;99788.84;105352;1263;62659;-78
2023/11/15 04:43:11;;;;;;;33.00;18.80;;;;;;;5.34;100.00;99789.02;105746;1257;60069;-77
2023/11/15 04:45:38;;;;;;;29.90;18.80;;;;;;;5.35;100.00;99784.66;105783;1251;70990;-79
2023/11/15 04:48:06;;;;;;;28.60;17.30;;;;;;;5.35;100.00;99788.95;105707;1257;63639;-76
2023/11/15 04:50:34;;;;;;;26.50;15.60;;;;;;;5.36;100.00;99792.40;105833;1257;71377;-77
2023/11/15 04:53:02;;;;;;;18.50;13.40;;;;;;;5.36;100.00;99793.77;105689;1260;59786;-76
2023/11/15 04:55:30;;;;;;;22.40;15.00;;;;;;;5.37;100.00;99794.42;105728;1252;60004;-77
2023/11/15 04:57:58;;;;;;;27.30;17.60;;;;;;;5.38;100.00;99791.75;105798;1256;73185;-76
2023/11/15 05:00:25;;;;;;;26.10;18.60;;;;;;;5.39;100.00;99789.42;105735;1255;62448;-77
2023/11/15 05:02:53;;;;;;;28.30;16.60;;;;;;;5.40;100.00;99796.87;105802;1257;73738;-78
2023/11/15 05:05:21;;;;;;;30.80;17.40;;;;;;;5.39;100.00;99792.40;105701;1256;61026;-80
2023/11/15 05:07:48;;;;;;;25.00;17.10;;;;;;;5.38;100.00;99801.98;105872;1252;60168;-76
2023/11/15 05:10:52;;;;;;;25.10;15.30;;;;;;;5.40;100.00;99807.93;102253;1291;603457;-79
2023/11/15 05:13:19;;;;;;;20.70;14.80;;;;;;;5.37;100.00;99811.74;104795;1270;61035;-77
2023/11/15 05:15:46;;;;;;;23.40;13.20;;;;;;;5.35;100.00;99814.30;104830;1267;59367;-78
2023/11/15 05:18:15;;;;;;;20.80;14.40;;;;;;;5.32;100.00;99815.13;104845;1266;72143;-78
2023/11/15 05:20:43;;;;;;;28.10;17.80;;;;;;;5.30;100.00;99816.82;104846;1270;62452;-76
2023/11/15 05:23:10;;;;;;;22.90;13.50;;;;;;;5.30;100.00;99820.45;104739;1270;171976;-76
2023/11/15 05:25:37;;;;;;;19.60;13.40;;;;;;;5.30;100.00;99823.73;104909;1264;61076;-76
2023/11/15 05:28:07;;;;;;;20.50;13.40;;;;;;;5.31;100.00;99822.81;104975;1264;61249;-79
2023/11/15 05:30:34;;;;;;;21.20;14.00;;;;;;;5.33;100.00;99828.96;104928;1266;72166;-77
2023/11/15 05:33:01;;;;;;;21.20;14.30;;;;;;;5.36;100.00;99822.20;105020;1268;63733;-77
2023/11/15 05:35:28;;;;;;;21.30;13.40;;;;;;;5.39;100.00;99814.05;104961;1268;72670;-77
2023/11/15 05:37:55;;;;;;;21.50;12.90;;;;;;;5.44;100.00;99812.80;104967;1268;61353;-78
2023/11/15 05:40:22;;;;;;;24.70;14.80;;;;;;;5.47;100.00;99806.05;104929;1264;60295;-76
2023/11/15 05:42:52;;;;;;;31.60;20.10;;;;;;;5.50;100.00;99808.45;104971;1264;73162;-77
2023/11/15 05:45:19;;;;;;;22.90;14.40;;;;;;;5.55;100.00;99812.36;105007;1268;62780;-76
2023/11/15 05:47:46;;;;;;;26.80;14.50;;;;;;;5.61;100.00;99815.70;104839;1264;71078;-77
2023/11/15 05:50:13;;;;;;;24.10;13.40;;;;;;;5.67;100.00;99819.02;104842;1264;59906;-76
2023/11/15 05:52:40;;;;;;;18.00;11.80;;;;;;;5.74;100.00;99823.16;104907;1266;60018;-77
2023/11/15 05:55:08;;;;;;;21.00;13.00;;;;;;;5.81;100.00;99824.19;104969;1268;73219;-78
2023/11/15 05:57:35;;;;;;;17.90;11.50;;;;;;;5.87;100.00;99825.29;105059;1264;62385;-77
2023/11/15 06:00:14;;;;;;;20.70;11.50;;;;;;;5.93;100.00;99821.81;104933;1264;71654;-76
2023/11/15 06:02:41;;;;;;;17.70;11.90;;;;;;;6.01;100.00;99827.36;104934;1265;61190;-76
2023/11/15 06:05:08;;;;;;;16.90;11.70;;;;;;;6.06;100.00;99827.05;104902;1264;61656;-75
2023/11/15 06:07:35;;;;;;;18.80;11.70;;;;;;;6.11;100.00;99830.41;104909;1268;71761;-78
2023/11/15 06:10:02;;;;;;;17.20;11.60;;;;;;;6.17;100.00;99834.80;104964;1268;63984;-76
2023/11/15 06:12:30;;;;;;;20.20;11.50;;;;;;;6.21;100.00;99841.88;105033;1267;72604;-77
2023/11/15 06:14:57;;;;;;;14.80;10.60;;;;;;;6.25;100.00;99838.01;105102;1264;59721;-78
2023/11/15 06:17:28;;;;;;;16.10;11.00;;;;;;;6.29;100.00;99840.74;104994;1268;60031;-78
2023/11/15 06:19:57;;;;;;;14.50;10.70;;;;;;;6.34;100.00;99837.54;104964;1265;72220;-76
2023/11/15 06:22:33;;;;;;;13.00;10.80;;;;;;;6.39;100.00;99840.89;105653;1257;63996;-77
2023/11/15 06:25:00;;;;;;;16.10;11.30;;;;;;;6.44;100.00;99846.70;105671;1257;72668;-78
2023/11/15 06:27:27;;;;;;;15.40;11.40;;;;;;;6.48;100.00;99848.88;105622;1257;62565;-78
2023/11/15 06:29:55;;;;;;;15.40;9.50;;;;;;;6.53;100.00;99849.30;105654;1253;60102;-77
2023/11/15 06:32:23;;;;;;;14.90;9.40;;;;;;;6.57;100.00;99851.71;105772;1253;71849;-76
2023/11/15 06:34:52;;;;;;;17.30;10.00;;;;;;;6.59;100.00;99855.20;105770;1253;62327;-77
2023/11/15 06:37:20;;;;;;;14.80;10.10;;;;;;;6.63;100.00;99856.04;105749;1256;71783;-77
2023/11/15 06:39:48;;;;;;;19.80;9.90;;;;;;;6.68;100.00;99860.48;105691;1255;59648;-77
2023/11/15 06:42:15;;;;;;;16.40;9.20;;;;;;;6.73;100.00;99853.05;105734;1258;59544;-77
2023/11/15 06:44:42;;;;;;;15.70;9.40;;;;;;;6.79;100.00;99851.48;105777;1253;72000;-77
2023/11/15 06:47:09;;;;;;;16.60;10.20;;;;;;;6.85;100.00;99857.39;105909;1257;62568;-77
2023/11/15 06:49:36;;;;;;;16.90;10.50;;;;;;;6.92;100.00;99855.47;105851;1257;72679;-77
2023/11/15 06:52:05;;;;;;;18.50;10.80;;;;;;;7.00;100.00;99856.23;106080;1253;61157;-75
2023/11/15 06:54:32;;;;;;;13.10;10.10;;;;;;;7.07;100.00;99857.21;107811;1253;60340;-76
2023/11/15 06:56:59;;;;;;;17.10;12.00;;;;;;;7.13;100.00;99856.35;108643;1253;71542;-76
2023/11/15 06:59:26;;;;;;;18.20;12.10;;;;;;;7.19;100.00;99855.47;106197;1257;62742;-75
2023/11/15 07:01:59;;;;;;;17.30;10.60;;;;;;;7.25;100.00;99853.39;105766;1254;71436;-77
2023/11/15 07:04:34;;;;;;;17.20;9.60;;;;;;;7.31;100.00;99854.80;105753;1254;59902;-77
2023/11/15 07:07:02;;;;;;;15.80;10.50;;;;;;;7.35;100.00;99862.52;105893;1258;59597;-75
2023/11/15 07:09:29;;;;;;;16.90;11.30;;;;;;;7.40;100.00;99867.60;105823;1252;73140;-77
2023/11/15 07:11:57;;;;;;;16.90;10.40;;;;;;;7.45;100.00;99870.96;105875;1256;64123;-80
2023/11/15 07:14:26;;;;;;;16.80;10.30;;;;;;;7.50;100.00;99879.73;105855;1253;72569;-77
2023/11/15 07:16:55;;;;;;;17.50;11.20;;;;;;;7.55;100.00;99888.31;105865;1257;60047;-77
2023/11/15 07:19:27;;;;;;;21.00;11.60;;;;;;;7.60;100.00;99886.23;105838;1257;59713;-78
2023/11/15 07:21:54;;;;;;;15.00;10.50;;;;;;;7.66;100.00;99891.98;105901;1253;73108;-77
2023/11/15 07:24:22;;;;;;;21.70;14.70;;;;;;;7.72;100.00;99890.97;105835;1257;63998;-75
2023/11/15 07:26:49;;;;;;;20.60;11.50;;;;;;;7.79;100.00;99883.93;105931;1253;72540;-77
2023/11/15 07:29:20;;;;;;;29.90;21.20;;;;;;;7.86;100.00;99876.70;106982;1253;61258;-76
2023/11/15 07:31:52;;;;;;;18.10;13.40;;;;;;;7.95;100.00;99869.40;107646;1253;59619;-78
2023/11/15 07:34:23;;;;;;;18.40;10.50;;;;;;;8.03;100.00;99870.42;106172;1253;73035;-79
2023/11/15 07:36:51;;;;;;;14.30;10.00;;;;;;;8.11;100.00;99872.89;105933;1253;63027;-75
2023/11/15 07:39:18;;;;;;;13.10;8.60;;;;;;;8.18;100.00;99875.27;105919;1253;71553;-77
2023/11/15 07:41:45;;;;;;;20.10;9.30;;;;;;;8.26;100.00;99872.70;105830;1257;61237;-79
2023/11/15 07:44:17;;;;;;;14.50;8.90;;;;;;;8.35;100.00;99871.40;106083;1253;59721;-78
2023/11/15 07:46:49;;;;;;;15.10;9.70;;;;;;;8.44;100.00;99871.74;105839;1257;73069;-78
2023/11/15 07:49:18;;;;;;;14.80;9.20;;;;;;;8.51;100.00;99870.41;105906;1253;62586;-79
2023/11/15 07:51:45;;;;;;;18.00;10.80;;;;;;;8.60;100.00;99868.67;105866;1257;72609;-78
2023/11/15 07:54:13;;;;;;;16.60;11.00;;;;;;;8.67;100.00;99866.80;105786;1253;59770;-79
2023/11/15 07:56:41;;;;;;;15.80;9.90;;;;;;;8.77;100.00;99866.90;105813;1253;60260;-79
2023/11/15 07:59:08;;;;;;;24.20;11.90;;;;;;;8.86;100.00;99869.07;105854;1253;73176;-78
2023/11/15 08:01:37;;;;;;;14.90;10.10;;;;;;;8.93;100.00;99869.64;105948;1253;62357;-77
2023/11/15 08:04:06;;;;;;;21.40;11.30;;;;;;;8.99;100.00;99869.47;105839;1253;72569;-80
2023/11/15 08:06:36;;;;;;;17.70;11.70;;;;;;;9.04;100.00;99868.80;105791;1256;62059;-79
2023/11/15 08:09:05;;;;;;;21.40;11.50;;;;;;;9.10;100.00;99858.94;105768;1257;59526;-78
2023/11/15 08:11:35;;;;;;;19.70;11.10;;;;;;;9.16;100.00;99858.05;105754;1254;73096;-78
2023/11/15 08:14:06;;;;;;;11.90;9.70;;;;;;;9.20;100.00;99862.84;105772;1253;63852;-77
2023/11/15 08:16:33;;;;;;;14.80;10.40;;;;;;;9.24;100.00;99863.46;105872;1257;72696;-75
2023/11/15 08:19:04;;;;;;;15.50;10.10;;;;;;;9.26;100.00;99861.39;105792;1257;62034;-76
2023/11/15 08:21:31;;;;;;;16.00;10.60;;;;;;;9.30;100.00;99853.25;105815;1253;61253;-76
2023/11/15 08:23:59;;;;;;;18.30;11.60;;;;;;;9.34;100.00;99849.89;105786;1257;73093;-75
2023/11/15 08:26:26;;;;;;;14.70;10.00;;;;;;;9.38;100.00;99851.17;105851;1254;62434;-78
2023/11/15 08:28:53;;;;;;;12.50;9.10;;;;;;;9.41;100.00;99856.05;105853;1257;72693;-76
2023/11/15 08:31:23;;;;;;;16.20;9.40;;;;;;;9.41;100.00;99859.16;105839;1257;62044;-77
2023/11/15 08:33:50;;;;;;;14.90;9.60;;;;;;;9.43;100.00;99861.45;105820;1253;60259;-77
2023/11/15 08:36:18;;;;;;;17.10;11.00;;;;;;;9.47;100.00;99857.39;107479;1253;73102;-76
2023/11/15 08:38:50;;;;;;;24.90;13.10;;;;;;;9.53;100.00;99852.38;106608;1257;61854;-75
2023/11/15 08:41:18;;;;;;;17.60;11.60;;;;;;;9.62;100.00;99856.17;105822;1253;73733;-77
2023/11/15 08:43:45;;;;;;;15.90;10.30;;;;;;;9.68;100.00;99854.02;105736;1257;61650;-76
2023/11/15 08:46:16;;;;;;;15.80;9.90;;;;;;;9.73;100.00;99852.65;105850;1253;60264;-77
2023/11/15 08:48:44;;;;;;;17.00;10.10;;;;;;;9.76;100.00;99848.96;105755;1257;72921;-75
2023/11/15 08:51:11;;;;;;;16.80;8.60;;;;;;;9.79;100.00;99840.05;105949;1253;62520;-76
2023/11/15 08:53:39;;;;;;;15.80;8.70;;;;;;;9.80;100.00;99840.27;105801;1253;72686;-76
2023/11/15 08:56:13;;;;;;;13.70;8.10;;;;;;;9.80;100.00;99835.38;105821;1253;62269;-76
2023/11/15 08:58:40;;;;;;;15.40;9.00;;;;;;;9.83;100.00;99832.08;105765;1253;59732;-73
2023/11/15 09:01:09;;;;;;;14.10;9.10;;;;;;;9.84;100.00;99824.30;105707;1253;71586;-77
2023/11/15 09:03:39;;;;;;;17.30;9.10;;;;;;;9.88;100.00;99820.86;105752;1257;63676;-78
2023/11/15 09:06:08;;;;;;;16.10;9.80;;;;;;;9.92;100.00;99818.98;105860;1253;71583;-76
2023/11/15 09:08:38;;;;;;;13.80;8.70;;;;;;;9.97;100.00;99812.88;105813;1257;61753;-78
2023/11/15 09:11:05;;;;;;;13.50;8.30;;;;;;;10.04;100.00;99814.13;105756;1253;60133;-76
2023/11/15 09:13:33;;;;;;;17.40;8.80;;;;;;;10.07;100.00;99817.59;105816;1255;72653;-77
2023/11/15 09:16:01;;;;;;;13.10;8.10;;;;;;;10.12;100.00;99820.73;105739;1257;63744;-76
2023/11/15 09:18:31;;;;;;;16.40;8.00;;;;;;;10.15;100.00;99820.88;105696;1253;72549;-77
2023/11/15 09:20:58;;;;;;;12.90;7.60;;;;;;;10.17;100.00;99825.48;105886;1253;62059;-76
2023/11/15 09:23:25;;;;;;;12.80;7.60;;;;;;;10.15;100.00;99833.31;105892;1253;60488;-77
2023/11/15 09:26:00;;;;;;;10.70;6.60;;;;;;;10.14;100.00;99833.52;105754;1258;73742;-78
2023/11/15 09:28:28;;;;;;;12.40;6.90;;;;;;;10.11;100.00;99837.57;105800;1257;63834;-77
2023/11/15 09:30:56;;;;;;;16.00;6.80;;;;;;;10.08;100.00;99837.79;105701;1253;71847;-76
2023/11/15 09:33:24;;;;;;;11.60;6.90;;;;;;;10.08;100.00;99835.72;105763;1258;60745;-78
2023/11/15 09:35:54;;;;;;;13.10;8.10;;;;;;;10.08;100.00;99836.07;105818;1257;60406;-77
2023/11/15 09:38:28;;;;;;;;;;;;;;;10.06;100.00;99839.83;106248;1257;73658;-77
2023/11/15 09:40:55;;;;;;;13.50;8.30;;;;;;;10.06;100.00;99838.48;107194;1257;63373;-76
2023/11/15 09:43:23;;;;;;;16.40;9.10;;;;;;;10.03;100.00;99832.95;107234;1253;71699;-76
2023/11/15 09:45:50;;;;;;;16.60;10.30;;;;;;;10.03;100.00;99822.64;106109;1257;60543;-77
2023/11/15 09:48:17;;;;;;;16.60;8.80;;;;;;;10.04;100.00;99816.75;105811;1253;61325;-76
2023/11/15 09:50:48;;;;;;;18.00;8.60;;;;;;;10.05;100.00;99808.70;105858;1257;74051;-78
2023/11/15 09:53:16;;;;;;;13.40;7.00;;;;;;;10.07;100.00;99802.08;105810;1256;65501;-77
2023/11/15 09:55:43;;;;;;;13.00;7.40;;;;;;;10.08;100.00;99797.27;105805;1257;72680;-76
2023/11/15 09:58:11;;;;;;;11.90;7.10;;;;;;;10.09;100.00;99797.74;105733;1254;61021;-76
2023/11/15 10:00:40;;;;;;;11.50;6.20;;;;;;;10.08;100.00;99797.30;105753;1253;60538;-77
2023/11/15 10:03:07;;;;;;;9.10;6.60;;;;;;;10.05;100.00;99797.14;105880;1257;73089;-77
2023/11/15 10:05:33;;;;;;;11.90;7.60;;;;;;;10.03;100.00;99792.07;105771;1255;62756;-77
2023/11/15 10:08:08;;;;;;;14.90;6.30;;;;;;;10.03;100.00;99786.98;105736;1253;72860;-77
2023/11/15 10:10:35;;;;;;;10.20;6.10;;;;;;;10.06;100.00;99783.63;105878;1257;62112;-78
2023/11/15 10:13:15;;;;;;;9.10;6.60;;;;;;;10.10;100.00;99786.46;105961;1253;60302;-79
2023/11/15 10:15:47;;;;;;;10.80;6.40;;;;;;;10.14;100.00;99786.15;105716;1253;73920;-78
2023/11/15 10:18:15;;;;;;;11.60;6.90;;;;;;;10.18;100.00;99790.84;105781;1258;65016;-77
2023/11/15 10:20:43;;;;;;;14.40;6.40;;;;;;;10.19;100.00;99798.11;105769;1253;72618;-77
2023/11/15 10:23:12;;;;;;;9.80;6.60;;;;;;;10.17;100.00;99794.04;105835;1257;60763;-78
2023/11/15 10:25:54;;;;;;;15.40;6.60;;;;;;;10.15;100.00;99793.95;105872;1253;60422;-79
2023/11/15 10:28:22;;;;;;;12.80;6.70;;;;;;;10.16;100.00;99800.72;105731;1257;73915;-77
2023/11/15 10:31:13;;;;;;;14.40;7.80;;;;;;;10.17;100.00;99794.34;105714;1256;65971;-77
2023/11/15 10:33:49;;;;;;;17.10;10.50;;;;;;;10.18;100.00;99792.04;105747;1253;73866;-77
2023/11/15 10:36:23;;;;;;;9.40;6.10;;;;;;;10.20;100.00;99795.18;105754;1258;62342;-77
2023/11/15 10:38:55;;;;;;;9.30;6.60;;;;;;;10.20;100.00;99792.23;105826;1253;60543;-77
2023/11/15 10:41:24;;;;;;;10.70;6.60;;;;;;;10.18;100.00;99793.94;105775;1257;73275;-77
2023/11/15 10:43:55;;;;;;;7.80;6.00;;;;;;;10.17;100.00;99794.33;105785;1257;63919;-78
2023/11/15 10:46:29;;;;;;;12.30;6.60;;;;;;;10.18;100.00;99786.09;105798;1253;72783;-78
2023/11/15 10:49:00;;;;;;;13.50;5.90;;;;;;;10.21;100.00;99779.11;105860;1253;64097;-78
2023/11/15 10:51:41;;;;;;;13.80;6.90;;;;;;;10.24;100.00;99780.23;105944;1257;60469;-79
2023/11/15 10:54:11;;;;;;;11.80;6.60;;;;;;;10.30;100.00;99780.36;106257;1257;73524;-75
2023/11/15 10:56:38;;;;;;;10.30;6.30;;;;;;;10.36;100.00;99779.95;105934;1258;65107;-77
2023/11/15 10:59:06;;;;;;;10.90;6.40;;;;;;;10.42;100.00;99779.84;105937;1253;71378;-78
2023/11/15 11:01:34;;;;;;;13.90;7.60;;;;;;;10.45;100.00;99773.34;105882;1253;60889;-82
2023/11/15 11:04:05;;;;;;;14.10;6.50;;;;;;;10.45;100.00;99774.72;105734;1253;61186;-79
2023/11/15 11:06:47;;;;;;;12.20;7.00;;;;;;;10.46;100.00;99771.73;106767;1253;73888;-80
2023/11/15 11:09:39;;;;;;;10.80;5.60;;;;;;;10.45;100.00;99776.34;107243;1257;62527;-76
2023/11/15 11:12:11;;;;;;;8.00;5.80;;;;;;;10.45;100.00;99777.71;106251;1252;71614;-79
2023/11/15 11:14:38;;;;;;;15.10;6.50;;;;;;;10.45;100.00;99776.13;105862;1259;60765;-79
2023/11/15 11:17:34;;;;;;;12.40;5.80;;;;;;;10.47;100.00;99770.90;105823;1253;60531;-77
2023/11/15 11:20:09;;;;;;;12.50;6.20;;;;;;;10.47;100.00;99766.38;105873;1254;73341;-76
2023/11/15 11:22:37;;;;;;;9.90;6.10;;;;;;;10.49;100.00;99765.36;105710;1258;63191;-79